createdAt,value
2023-01-07T00:00:54.457Z,1010.2
2023-01-07T00:01:54.434Z,1010.2
2023-01-07T00:02:54.622Z,1010.0
2023-01-07T00:03:54.624Z,1010.0
2023-01-07T00:04:54.449Z,1010.1
2023-01-07T00:05:54.457Z,1010.1
2023-01-07T00:06:54.478Z,1010.0
2023-01-07T00:07:54.475Z,1010.0
2023-01-07T00:08:54.483Z,1009.9
2023-01-07T00:09:54.489Z,1009.9
2023-01-07T00:10:54.492Z,1009.9
2023-01-07T00:11:54.505Z,1009.8
2023-01-07T00:12:54.503Z,1009.8
2023-01-07T00:13:54.505Z,1009.9
2023-01-07T00:14:54.515Z,1009.9
2023-01-07T00:15:54.612Z,1009.8
2023-01-07T00:16:54.534Z,1009.9
2023-01-07T00:17:54.531Z,1010.0
2023-01-07T00:18:54.551Z,1010.0
2023-01-07T00:19:54.545Z,1009.9
2023-01-07T00:20:54.555Z,1009.9
2023-01-07T00:21:54.563Z,1010.0
2023-01-07T00:22:54.565Z,1010.0
2023-01-07T00:23:54.576Z,1010.0
2023-01-07T00:24:54.580Z,1010.0
2023-01-07T00:25:54.583Z,1010.0
2023-01-07T00:26:54.607Z,1010.1
2023-01-07T00:27:54.600Z,1010.0
2023-01-07T00:28:54.627Z,1010.0
2023-01-07T00:29:54.609Z,1010.0
2023-01-07T00:30:54.612Z,1010.0
2023-01-07T00:31:54.647Z,1010.0
2023-01-07T00:32:54.645Z,1009.9
2023-01-07T00:33:54.680Z,1010.0
2023-01-07T00:34:54.657Z,1009.9
2023-01-07T00:35:54.660Z,1010.0
2023-01-07T00:36:54.662Z,1010.0
2023-01-07T00:37:54.664Z,1009.9
2023-01-07T00:38:54.668Z,1009.9
2023-01-07T00:39:54.679Z,1009.8
2023-01-07T00:40:54.692Z,1009.8
2023-01-07T00:41:54.699Z,1009.9
2023-01-07T00:42:54.708Z,1009.9
2023-01-07T00:43:54.719Z,1009.9
2023-01-07T00:44:54.714Z,1010.0
2023-01-07T00:45:54.735Z,1009.9
2023-01-07T00:46:54.889Z,1010.0
2023-01-07T00:47:54.765Z,1010.0
2023-01-07T00:48:54.740Z,1010.0
2023-01-07T00:49:54.740Z,1009.9
2023-01-07T00:50:54.763Z,1009.9
2023-01-07T00:51:54.753Z,1009.9
2023-01-07T00:52:54.767Z,1009.9
2023-01-07T00:53:54.770Z,1009.9
2023-01-07T00:54:54.779Z,1009.9
2023-01-07T00:55:54.782Z,1009.8
2023-01-07T00:56:54.798Z,1009.8
2023-01-07T00:57:54.839Z,1009.9
2023-01-07T00:58:54.808Z,1009.9
2023-01-07T00:59:54.947Z,1009.9
2023-01-07T01:00:55.112Z,1009.8
2023-01-07T01:01:55.284Z,1009.9
2023-01-07T01:02:55.033Z,1009.9
2023-01-07T01:03:54.838Z,1009.8
2023-01-07T01:04:54.846Z,1009.9
2023-01-07T01:05:54.843Z,1009.9
2023-01-07T01:06:54.844Z,1009.9
2023-01-07T01:07:54.855Z,1009.9
2023-01-07T01:08:54.871Z,1009.8
2023-01-07T01:09:54.877Z,1009.8
2023-01-07T01:10:54.894Z,1009.8
2023-01-07T01:11:54.904Z,1009.9
2023-01-07T01:12:54.897Z,1009.8
2023-01-07T01:13:54.899Z,1009.8
2023-01-07T01:14:54.895Z,1009.8
2023-01-07T01:15:54.949Z,1009.8
2023-01-07T01:16:54.901Z,1009.7
2023-01-07T01:17:54.920Z,1009.8
2023-01-07T01:18:54.937Z,1009.8
2023-01-07T01:19:54.936Z,1009.7
2023-01-07T01:20:55.014Z,1009.7
2023-01-07T01:21:54.944Z,1009.7
2023-01-07T01:22:54.959Z,1009.7
2023-01-07T01:23:54.953Z,1009.7
2023-01-07T01:24:54.961Z,1009.7
2023-01-07T01:25:54.966Z,1009.7
2023-01-07T01:26:54.985Z,1009.6
2023-01-07T01:27:54.980Z,1009.7
2023-01-07T01:28:54.989Z,1009.7
2023-01-07T01:29:54.997Z,1009.7
2023-01-07T01:30:54.998Z,1009.7
2023-01-07T01:31:55.159Z,1009.7
2023-01-07T01:32:55.010Z,1009.6
2023-01-07T01:33:55.044Z,1009.6
2023-01-07T01:34:55.020Z,1009.6
2023-01-07T01:35:55.025Z,1009.7
2023-01-07T01:36:55.041Z,1009.7
2023-01-07T01:37:55.058Z,1009.6
2023-01-07T01:38:55.055Z,1009.6
2023-01-07T01:39:55.069Z,1009.6
2023-01-07T01:40:55.075Z,1009.6
2023-01-07T01:41:55.078Z,1009.5
2023-01-07T01:42:55.084Z,1009.5
2023-01-07T01:43:55.111Z,1009.6
2023-01-07T01:44:55.094Z,1009.6
2023-01-07T01:45:55.098Z,1009.5
2023-01-07T02:03:55.692Z,1009.6
2023-01-07T02:04:55.218Z,1009.5
2023-01-07T02:05:55.220Z,1009.5
2023-01-07T02:06:55.224Z,1009.5
2023-01-07T02:07:55.230Z,1009.4
2023-01-07T02:08:55.240Z,1009.5
2023-01-07T02:09:55.243Z,1009.4
2023-01-07T02:10:55.248Z,1009.4
2023-01-07T02:11:55.251Z,1009.4
2023-01-07T02:12:55.260Z,1009.4
2023-01-07T02:13:55.266Z,1009.4
2023-01-07T02:14:55.269Z,1009.4
2023-01-07T02:15:55.275Z,1009.4
2023-01-07T02:16:55.287Z,1009.4
2023-01-07T02:17:55.303Z,1009.4
2023-01-07T02:18:55.299Z,1009.4
2023-01-07T02:19:55.321Z,1009.4
2023-01-07T02:20:55.310Z,1009.4
2023-01-07T02:21:55.311Z,1009.4
2023-01-07T02:22:55.321Z,1009.3
2023-01-07T02:23:55.325Z,1009.3
2023-01-07T02:24:55.335Z,1009.2
2023-01-07T02:25:55.348Z,1009.3
2023-01-07T02:26:55.347Z,1009.3
2023-01-07T02:27:55.353Z,1009.3
2023-01-07T02:28:55.369Z,1009.3
2023-01-07T02:29:55.367Z,1009.3
2023-01-07T02:30:55.376Z,1009.3
2023-01-07T02:31:55.637Z,1009.3
2023-01-07T02:32:55.392Z,1009.3
2023-01-07T02:33:55.400Z,1009.3
2023-01-07T02:34:55.396Z,1009.3
2023-01-07T02:35:55.403Z,1009.3
2023-01-07T02:36:55.410Z,1009.3
2023-01-07T02:37:55.415Z,1009.2
2023-01-07T02:38:55.437Z,1009.2
2023-01-07T02:39:55.427Z,1009.2
2023-01-07T02:40:55.434Z,1009.1
2023-01-07T02:41:55.447Z,1009.2
2023-01-07T02:42:55.448Z,1009.1
2023-01-07T02:43:55.456Z,1009.1
2023-01-07T02:44:55.465Z,1009.1
2023-01-07T02:45:55.649Z,1009.0
2023-01-07T02:46:55.486Z,1009.1
2023-01-07T02:47:55.519Z,1009.1
2023-01-07T02:48:55.501Z,1009.0
2023-01-07T02:49:55.524Z,1009.0
2023-01-07T02:50:55.511Z,1009.0
2023-01-07T02:51:55.530Z,1009.0
2023-01-07T02:52:55.523Z,1008.8
2023-01-07T02:53:55.531Z,1009.0
2023-01-07T02:54:55.539Z,1009.0
2023-01-07T02:55:55.571Z,1008.9
2023-01-07T02:56:55.558Z,1008.9
2023-01-07T02:57:55.579Z,1008.8
2023-01-07T02:58:55.561Z,1008.9
2023-01-07T02:59:55.581Z,1008.8
2023-01-07T03:00:55.781Z,1008.8
2023-01-07T03:01:55.875Z,1008.9
2023-01-07T03:02:55.620Z,1008.8
2023-01-07T03:03:55.712Z,1008.8
2023-01-07T03:04:55.601Z,1008.9
2023-01-07T03:05:55.601Z,1008.9
2023-01-07T03:06:55.614Z,1008.9
2023-01-07T03:07:55.623Z,1008.8
2023-01-07T03:08:55.653Z,1008.9
2023-01-07T03:09:55.649Z,1008.8
2023-01-07T03:10:55.638Z,1008.8
2023-01-07T03:11:55.639Z,1008.8
2023-01-07T03:12:55.672Z,1008.8
2023-01-07T03:13:55.656Z,1008.8
2023-01-07T03:14:55.694Z,1008.8
2023-01-07T03:15:55.680Z,1008.9
2023-01-07T03:16:55.681Z,1008.8
2023-01-07T03:17:55.679Z,1008.9
2023-01-07T03:18:55.721Z,1008.8
2023-01-07T03:19:55.706Z,1008.8
2023-01-07T03:20:55.703Z,1008.8
2023-01-07T03:21:55.719Z,1008.8
2023-01-07T03:22:55.709Z,1008.7
2023-01-07T03:23:55.724Z,1008.7
2023-01-07T03:24:55.731Z,1008.8
2023-01-07T03:25:55.738Z,1008.7
2023-01-07T03:26:55.762Z,1008.7
2023-01-07T03:27:55.753Z,1008.7
2023-01-07T03:28:55.746Z,1008.6
2023-01-07T03:29:55.753Z,1008.7
2023-01-07T03:30:55.753Z,1008.6
2023-01-07T03:31:55.908Z,1008.6
2023-01-07T03:32:55.774Z,1008.7
2023-01-07T03:33:55.799Z,1008.7
2023-01-07T03:34:55.792Z,1008.6
2023-01-07T03:35:55.792Z,1008.7
2023-01-07T03:36:55.797Z,1008.8
2023-01-07T03:37:55.815Z,1008.8
2023-01-07T03:38:55.809Z,1008.8
2023-01-07T03:39:55.827Z,1008.7
2023-01-07T03:40:55.839Z,1008.7
2023-01-07T03:41:55.834Z,1008.7
2023-01-07T03:42:55.842Z,1008.8
2023-01-07T03:43:55.846Z,1008.8
2023-01-07T03:44:55.888Z,1008.7
2023-01-07T03:45:55.970Z,1008.7
2023-01-07T03:46:55.872Z,1008.7
2023-01-07T03:47:55.881Z,1008.7
2023-01-07T03:48:55.886Z,1008.8
2023-01-07T03:49:55.918Z,1008.8
2023-01-07T03:50:55.904Z,1008.7
2023-01-07T03:51:55.911Z,1008.7
2023-01-07T03:52:55.918Z,1008.8
2023-01-07T03:53:55.919Z,1008.8
2023-01-07T03:54:55.940Z,1008.7
2023-01-07T03:55:55.939Z,1008.7
2023-01-07T03:56:55.941Z,1008.6
2023-01-07T03:57:55.960Z,1008.7
2023-01-07T03:58:55.965Z,1008.7
2023-01-07T03:59:55.962Z,1008.6
2023-01-07T04:00:56.325Z,1008.5
2023-01-07T04:01:56.322Z,1008.6
2023-01-07T04:02:55.978Z,1008.5
2023-01-07T04:03:55.987Z,1008.6
2023-01-07T04:04:55.998Z,1008.5
2023-01-07T04:05:56.009Z,1008.5
2023-01-07T04:06:56.010Z,1008.5
2023-01-07T04:07:56.008Z,1008.5
2023-01-07T04:08:56.014Z,1008.4
2023-01-07T04:09:56.024Z,1008.5
2023-01-07T04:10:56.034Z,1008.4
2023-01-07T04:11:56.042Z,1008.5
2023-01-07T04:12:56.050Z,1008.4
2023-01-07T04:13:56.052Z,1008.3
2023-01-07T04:14:59.447Z,1008.4
2023-01-07T04:15:56.069Z,1008.3
2023-01-07T04:16:56.156Z,1008.3
2023-01-07T04:17:56.089Z,1008.3
2023-01-07T04:18:56.102Z,1008.3
2023-01-07T04:19:56.106Z,1008.3
2023-01-07T04:20:56.107Z,1008.3
2023-01-07T04:21:56.113Z,1008.3
2023-01-07T04:22:56.123Z,1008.3
2023-01-07T04:23:56.127Z,1008.2
2023-01-07T04:24:56.139Z,1008.2
2023-01-07T04:25:56.137Z,1008.3
2023-01-07T04:26:56.146Z,1008.2
2023-01-07T04:27:56.162Z,1008.2
2023-01-07T04:28:56.160Z,1008.2
2023-01-07T04:29:56.167Z,1008.2
2023-01-07T04:30:56.285Z,1008.2
2023-01-07T04:31:56.169Z,1008.3
2023-01-07T04:32:56.190Z,1008.2
2023-01-07T04:33:56.184Z,1008.3
2023-01-07T04:34:56.195Z,1008.2
2023-01-07T04:35:56.209Z,1008.1
2023-01-07T04:36:56.202Z,1008.2
2023-01-07T04:37:56.213Z,1008.2
2023-01-07T04:38:56.217Z,1008.1
2023-01-07T04:39:56.224Z,1008.1
2023-01-07T04:40:56.233Z,1008.1
2023-01-07T04:41:56.242Z,1008.2
2023-01-07T04:42:56.247Z,1008.1
2023-01-07T04:43:56.252Z,1008.1
2023-01-07T04:44:56.289Z,1008.0
2023-01-07T04:45:56.341Z,1008.1
2023-01-07T04:46:56.289Z,1008.1
2023-01-07T04:47:56.330Z,1008.1
2023-01-07T04:48:56.277Z,1008.1
2023-01-07T04:49:56.289Z,1008.0
2023-01-07T04:50:56.290Z,1008.1
2023-01-07T04:51:56.294Z,1008.0
2023-01-07T04:52:56.361Z,1008.0
2023-01-07T04:53:56.318Z,1008.0
2023-01-07T04:54:56.323Z,1008.0
2023-01-07T04:55:56.368Z,1008.0
2023-01-07T04:56:56.357Z,1008.0
2023-01-07T04:57:56.357Z,1008.0
2023-01-07T04:58:56.365Z,1008.0
2023-01-07T04:59:56.352Z,1008.0
2023-01-07T05:00:56.509Z,1008.0
2023-01-07T05:01:56.682Z,1008.0
2023-01-07T05:02:56.390Z,1007.9
2023-01-07T05:03:56.401Z,1008.0
2023-01-07T05:04:56.417Z,1007.9
2023-01-07T05:05:56.419Z,1007.9
2023-01-07T05:06:56.419Z,1007.9
2023-01-07T05:07:56.430Z,1007.9
2023-01-07T05:08:56.444Z,1008.0
2023-01-07T05:09:56.451Z,1008.0
2023-01-07T05:10:56.452Z,1008.1
2023-01-07T05:11:56.462Z,1008.0
2023-01-07T05:12:56.478Z,1008.0
2023-01-07T05:13:56.480Z,1008.0
2023-01-07T05:14:56.484Z,1008.1
2023-01-07T05:15:56.495Z,1008.0
2023-01-07T05:16:56.619Z,1008.1
2023-01-07T05:17:56.496Z,1008.1
2023-01-07T05:18:56.514Z,1008.0
2023-01-07T05:19:56.514Z,1008.1
2023-01-07T05:20:56.518Z,1008.1
2023-01-07T05:21:56.519Z,1008.1
2023-01-07T05:22:56.545Z,1008.0
2023-01-07T05:23:56.540Z,1008.1
2023-01-07T05:24:56.543Z,1008.0
2023-01-07T05:25:56.557Z,1008.0
2023-01-07T05:26:56.558Z,1008.0
2023-01-07T05:27:56.565Z,1008.0
2023-01-07T05:28:56.577Z,1008.0
2023-01-07T05:29:56.573Z,1008.0
2023-01-07T05:30:56.720Z,1008.0
2023-01-07T05:31:56.594Z,1008.0
2023-01-07T05:32:56.598Z,1008.0
2023-01-07T05:33:56.618Z,1008.0
2023-01-07T05:34:56.612Z,1007.9
2023-01-07T05:35:56.621Z,1007.9
2023-01-07T05:36:56.622Z,1007.9
2023-01-07T05:37:56.639Z,1007.9
2023-01-07T05:38:56.649Z,1008.0
2023-01-07T05:39:56.649Z,1007.9
2023-01-07T05:40:56.658Z,1008.0
2023-01-07T05:41:56.655Z,1008.0
2023-01-07T05:42:56.666Z,1007.9
2023-01-07T05:43:56.674Z,1007.9
2023-01-07T05:44:56.685Z,1008.0
2023-01-07T05:45:56.830Z,1008.0
2023-01-07T05:46:56.685Z,1008.0
2023-01-07T05:47:56.696Z,1008.0
2023-01-07T05:48:56.705Z,1008.0
2023-01-07T05:49:56.707Z,1008.0
2023-01-07T05:50:56.711Z,1007.9
2023-01-07T05:51:56.722Z,1008.0
2023-01-07T05:52:56.730Z,1008.0
2023-01-07T05:53:56.755Z,1008.0
2023-01-07T05:54:56.744Z,1008.0
2023-01-07T05:55:56.748Z,1007.9
2023-01-07T05:56:56.772Z,1007.9
2023-01-07T05:57:56.763Z,1008.0
2023-01-07T05:58:56.776Z,1008.0
2023-01-07T05:59:56.778Z,1008.0
2023-01-07T06:00:56.911Z,1007.9
2023-01-07T06:01:56.795Z,1008.0
2023-01-07T06:02:56.802Z,1008.0
2023-01-07T06:03:56.938Z,1008.0
2023-01-07T06:04:57.038Z,1008.0
2023-01-07T06:05:56.827Z,1007.9
2023-01-07T06:06:56.859Z,1008.0
2023-01-07T06:07:56.855Z,1008.0
2023-01-07T06:08:56.881Z,1008.0
2023-01-07T06:09:56.864Z,1008.1
2023-01-07T06:10:56.877Z,1008.0
2023-01-07T06:11:56.876Z,1008.0
2023-01-07T06:12:56.879Z,1008.0
2023-01-07T06:13:56.900Z,1008.0
2023-01-07T06:14:56.902Z,1008.0
2023-01-07T06:15:56.964Z,1008.0
2023-01-07T06:16:56.919Z,1008.0
2023-01-07T06:17:56.912Z,1008.0
2023-01-07T06:18:56.929Z,1008.1
2023-01-07T06:19:56.927Z,1008.0
2023-01-07T06:20:57.078Z,1008.0
2023-01-07T06:21:56.951Z,1008.0
2023-01-07T06:22:56.972Z,1008.1
2023-01-07T06:23:56.977Z,1008.0
2023-01-07T06:24:56.969Z,1008.0
2023-01-07T06:25:56.982Z,1008.0
2023-01-07T06:26:56.980Z,1008.0
2023-01-07T06:27:57.031Z,1008.0
2023-01-07T06:28:56.992Z,1008.0
2023-01-07T06:29:57.006Z,1008.0
2023-01-07T06:30:57.194Z,1008.0
2023-01-07T06:31:57.021Z,1008.0
2023-01-07T06:32:57.027Z,1008.1
2023-01-07T06:33:57.025Z,1007.9
2023-01-07T06:34:57.042Z,1008.0
2023-01-07T06:35:57.102Z,1008.1
2023-01-07T06:36:57.101Z,1008.0
2023-01-07T06:37:57.063Z,1008.0
2023-01-07T06:38:57.071Z,1008.0
2023-01-07T06:39:57.076Z,1008.0
2023-01-07T06:40:57.094Z,1008.0
2023-01-07T06:41:57.088Z,1008.0
2023-01-07T06:42:57.119Z,1008.0
2023-01-07T06:43:57.203Z,1008.0
2023-01-07T06:44:57.116Z,1008.0
2023-01-07T06:45:57.269Z,1008.0
2023-01-07T06:46:57.132Z,1008.0
2023-01-07T06:47:57.163Z,1008.0
2023-01-07T06:48:57.151Z,1007.9
2023-01-07T06:49:57.151Z,1007.8
2023-01-07T06:50:57.169Z,1008.0
2023-01-07T06:51:57.177Z,1007.9
2023-01-07T06:52:57.187Z,1008.0
2023-01-07T06:53:57.187Z,1007.9
2023-01-07T06:54:57.209Z,1007.8
2023-01-07T06:55:57.203Z,1007.9
2023-01-07T06:56:57.205Z,1007.9
2023-01-07T06:57:57.214Z,1008.0
2023-01-07T06:58:57.210Z,1008.0
2023-01-07T06:59:57.238Z,1007.9
2023-01-07T07:00:57.353Z,1008.0
2023-01-07T07:01:57.524Z,1008.0
2023-01-07T07:02:57.449Z,1008.0
2023-01-07T07:03:57.253Z,1008.0
2023-01-07T07:04:57.255Z,1008.0
2023-01-07T07:05:57.265Z,1008.0
2023-01-07T07:06:57.267Z,1008.0
2023-01-07T07:07:57.302Z,1008.0
2023-01-07T07:08:57.314Z,1008.1
2023-01-07T07:09:57.285Z,1008.0
2023-01-07T07:10:57.303Z,1008.0
2023-01-07T07:11:57.307Z,1008.0
2023-01-07T07:12:57.360Z,1008.0
2023-01-07T07:13:57.326Z,1008.0
2023-01-07T07:14:57.326Z,1007.9
2023-01-07T07:15:57.517Z,1008.0
2023-01-07T07:16:57.351Z,1008.0
2023-01-07T07:17:57.344Z,1008.0
2023-01-07T07:18:57.353Z,1008.0
2023-01-07T07:19:57.373Z,1007.9
2023-01-07T07:20:57.373Z,1008.0
2023-01-07T07:21:57.380Z,1008.0
2023-01-07T07:22:57.416Z,1008.0
2023-01-07T07:23:57.398Z,1008.0
2023-01-07T07:24:57.434Z,1008.0
2023-01-07T07:25:57.443Z,1008.0
2023-01-07T07:26:57.409Z,1008.0
2023-01-07T07:27:57.430Z,1008.0
2023-01-07T07:28:57.428Z,1008.0
2023-01-07T07:29:57.447Z,1008.0
2023-01-07T07:30:57.593Z,1007.9
2023-01-07T07:31:57.635Z,1008.0
2023-01-07T07:32:57.456Z,1007.9
2023-01-07T07:33:57.485Z,1008.0
2023-01-07T07:34:57.488Z,1008.0
2023-01-07T07:35:57.539Z,1008.0
2023-01-07T07:36:57.496Z,1008.0
2023-01-07T07:37:57.519Z,1007.9
2023-01-07T07:38:57.519Z,1008.0
2023-01-07T07:39:57.527Z,1008.0
2023-01-07T07:40:57.536Z,1008.0
2023-01-07T07:41:57.535Z,1008.0
2023-01-07T07:43:10.108Z,1008.0
2023-01-07T07:43:57.550Z,1007.9
2023-01-07T07:44:57.568Z,1007.9
2023-01-07T07:45:57.567Z,1008.0
2023-01-07T07:46:57.710Z,1008.0
2023-01-07T07:47:57.569Z,1008.0
2023-01-07T07:48:57.583Z,1007.9
2023-01-07T07:49:57.585Z,1008.0
2023-01-07T07:50:57.599Z,1007.9
2023-01-07T07:51:57.603Z,1007.9
2023-01-07T07:52:57.601Z,1008.0
2023-01-07T07:53:57.613Z,1008.0
2023-01-07T07:55:19.780Z,1008.0
2023-01-07T07:55:57.623Z,1008.0
2023-01-07T07:56:57.635Z,1007.9
2023-01-07T07:57:57.650Z,1008.0
2023-01-07T07:58:57.659Z,1007.9
2023-01-07T07:59:57.665Z,1007.9
2023-01-07T08:00:57.807Z,1007.9
2023-01-07T08:01:57.798Z,1007.8
2023-01-07T08:02:57.913Z,1007.9
2023-01-07T08:03:57.710Z,1007.9
2023-01-07T08:04:57.703Z,1007.8
2023-01-07T08:05:57.703Z,1007.9
2023-01-07T08:06:57.713Z,1007.8
2023-01-07T08:07:57.845Z,1007.8
2023-01-07T08:08:57.724Z,1007.8
2023-01-07T08:09:57.725Z,1007.8
2023-01-07T08:10:57.759Z,1007.9
2023-01-07T08:11:57.757Z,1007.8
2023-01-07T08:12:57.785Z,1007.8
2023-01-07T08:13:57.766Z,1007.9
2023-01-07T08:14:57.777Z,1007.9
2023-01-07T08:15:58.067Z,1007.8
2023-01-07T08:16:57.816Z,1007.9
2023-01-07T08:17:57.803Z,1007.8
2023-01-07T08:18:57.816Z,1007.8
2023-01-07T08:19:57.814Z,1007.9
2023-01-07T08:20:57.826Z,1007.9
2023-01-07T08:21:57.846Z,1007.8
2023-01-07T08:22:57.836Z,1007.8
2023-01-07T08:23:57.847Z,1007.8
2023-01-07T08:24:57.848Z,1007.8
2023-01-07T08:25:57.852Z,1007.8
2023-01-07T08:26:57.866Z,1007.7
2023-01-07T08:27:57.898Z,1007.7
2023-01-07T08:28:57.973Z,1007.7
2023-01-07T08:29:57.881Z,1007.7
2023-01-07T08:30:58.104Z,1007.7
2023-01-07T08:31:58.026Z,1007.7
2023-01-07T08:32:57.948Z,1007.7
2023-01-07T08:33:57.919Z,1007.7
2023-01-07T08:34:57.954Z,1007.7
2023-01-07T08:35:57.944Z,1007.7
2023-01-07T08:36:57.940Z,1007.7
2023-01-07T08:37:57.949Z,1007.7
2023-01-07T08:38:57.960Z,1007.6
2023-01-07T08:39:57.966Z,1007.6
2023-01-07T08:40:57.973Z,1007.7
2023-01-07T08:41:57.986Z,1007.6
2023-01-07T08:42:57.992Z,1007.7
2023-01-07T08:43:58.004Z,1007.7
2023-01-07T08:44:58.009Z,1007.7
2023-01-07T08:45:58.017Z,1007.6
2023-01-07T08:46:58.179Z,1007.6
2023-01-07T08:47:58.041Z,1007.7
2023-01-07T08:48:58.037Z,1007.7
2023-01-07T08:49:58.041Z,1007.7
2023-01-07T08:50:58.047Z,1007.6
2023-01-07T08:51:58.066Z,1007.6
2023-01-07T08:52:58.074Z,1007.6
2023-01-07T08:53:58.073Z,1007.6
2023-01-07T08:54:58.088Z,1007.6
2023-01-07T08:55:58.103Z,1007.5
2023-01-07T08:56:58.107Z,1007.6
2023-01-07T08:57:58.109Z,1007.7
2023-01-07T08:58:58.113Z,1007.7
2023-01-07T08:59:58.127Z,1007.6
2023-01-07T09:00:58.300Z,1007.6
2023-01-07T09:01:58.455Z,1007.7
2023-01-07T09:02:58.157Z,1007.7
2023-01-07T09:03:58.160Z,1007.7
2023-01-07T09:04:58.171Z,1007.6
2023-01-07T09:05:58.183Z,1007.6
2023-01-07T09:06:58.187Z,1007.6
2023-01-07T09:07:58.202Z,1007.7
2023-01-07T09:08:58.195Z,1007.5
2023-01-07T09:09:58.224Z,1007.6
2023-01-07T09:10:58.205Z,1007.5
2023-01-07T09:11:58.237Z,1007.5
2023-01-07T09:12:58.265Z,1007.5
2023-01-07T09:13:58.233Z,1007.5
2023-01-07T09:14:58.251Z,1007.5
2023-01-07T09:15:58.325Z,1007.6
2023-01-07T09:16:58.282Z,1007.5
2023-01-07T09:17:58.271Z,1007.5
2023-01-07T09:18:58.294Z,1007.5
2023-01-07T09:19:58.281Z,1007.6
2023-01-07T09:20:58.293Z,1007.6
2023-01-07T09:21:58.298Z,1007.5
2023-01-07T09:22:58.320Z,1007.5
2023-01-07T09:23:58.322Z,1007.5
2023-01-07T09:24:58.323Z,1007.5
2023-01-07T09:25:58.332Z,1007.5
2023-01-07T09:26:58.347Z,1007.6
2023-01-07T09:27:58.352Z,1007.6
2023-01-07T09:28:58.351Z,1007.6
2023-01-07T09:29:58.385Z,1007.6
2023-01-07T09:30:58.369Z,1007.5
2023-01-07T09:31:58.596Z,1007.5
2023-01-07T09:32:58.385Z,1007.6
2023-01-07T09:33:58.393Z,1007.6
2023-01-07T09:34:58.441Z,1007.5
2023-01-07T09:35:58.430Z,1007.5
2023-01-07T09:36:58.445Z,1007.6
2023-01-07T09:37:58.431Z,1007.5
2023-01-07T09:38:58.438Z,1007.5
2023-01-07T09:39:58.452Z,1007.6
2023-01-07T09:40:58.473Z,1007.6
2023-01-07T09:41:58.490Z,1007.6
2023-01-07T09:42:58.490Z,1007.5
2023-01-07T09:44:01.883Z,1007.5
2023-01-07T09:44:58.508Z,1007.6
2023-01-07T09:45:58.628Z,1007.5
2023-01-07T09:46:58.541Z,1007.5
2023-01-07T09:47:58.535Z,1007.5
2023-01-07T09:48:58.540Z,1007.5
2023-01-07T09:49:58.540Z,1007.5
2023-01-07T09:50:58.575Z,1007.5
2023-01-07T09:51:58.558Z,1007.5
2023-01-07T09:52:58.570Z,1007.5
2023-01-07T09:53:58.571Z,1007.5
2023-01-07T09:54:58.588Z,1007.4
2023-01-07T09:56:10.341Z,1007.4
2023-01-07T09:56:58.615Z,1007.4
2023-01-07T09:57:58.604Z,1007.5
2023-01-07T09:58:58.636Z,1007.5
2023-01-07T09:59:58.638Z,1007.4
2023-01-07T10:00:58.822Z,1007.4
2023-01-07T10:01:58.643Z,1007.4
2023-01-07T10:02:58.874Z,1007.5
2023-01-07T10:03:58.783Z,1007.5
2023-01-07T10:04:58.692Z,1007.4
2023-01-07T10:05:58.674Z,1007.4
2023-01-07T10:06:58.683Z,1007.4
2023-01-07T10:08:28.932Z,1007.4
2023-01-07T10:08:58.704Z,1007.3
2023-01-07T10:09:58.709Z,1007.3
2023-01-07T10:10:58.716Z,1007.3
2023-01-07T10:11:58.725Z,1007.4
2023-01-07T10:12:58.750Z,1007.3
2023-01-07T10:13:58.757Z,1007.3
2023-01-07T10:14:58.870Z,1007.2
2023-01-07T10:15:58.808Z,1007.3
2023-01-07T10:16:58.766Z,1007.3
2023-01-07T10:17:58.797Z,1007.2
2023-01-07T10:18:58.808Z,1007.3
2023-01-07T10:19:58.806Z,1007.3
2023-01-07T10:20:58.807Z,1007.2
2023-01-07T10:21:58.833Z,1007.2
2023-01-07T10:22:58.823Z,1007.1
2023-01-07T10:23:58.845Z,1007.2
2023-01-07T10:24:58.903Z,1007.1
2023-01-07T10:25:58.882Z,1007.2
2023-01-07T10:26:58.868Z,1007.2
2023-01-07T10:27:58.874Z,1007.2
2023-01-07T10:28:58.878Z,1007.2
2023-01-07T10:29:58.886Z,1007.2
2023-01-07T10:30:58.893Z,1007.2
2023-01-07T10:31:59.091Z,1007.2
2023-01-07T10:32:58.911Z,1007.2
2023-01-07T10:33:58.929Z,1007.2
2023-01-07T10:34:58.942Z,1007.2
2023-01-07T10:35:58.945Z,1007.1
2023-01-07T10:36:58.961Z,1007.2
2023-01-07T10:37:59.017Z,1007.1
2023-01-07T10:38:58.980Z,1007.2
2023-01-07T10:39:58.976Z,1007.1
2023-01-07T10:40:58.988Z,1007.2
2023-01-07T10:41:58.996Z,1007.1
2023-01-07T10:42:59.014Z,1007.2
2023-01-07T10:43:59.011Z,1007.1
2023-01-07T10:44:59.042Z,1007.2
2023-01-07T10:45:59.234Z,1007.1
2023-01-07T10:46:59.049Z,1007.2
2023-01-07T10:47:59.061Z,1007.1
2023-01-07T10:48:59.066Z,1007.0
2023-01-07T10:49:59.074Z,1007.0
2023-01-07T10:50:59.094Z,1007.0
2023-01-07T10:51:59.089Z,1007.0
2023-01-07T10:52:59.097Z,1006.9
2023-01-07T10:53:59.100Z,1007.0
2023-01-07T10:54:59.113Z,1007.0
2023-01-07T10:55:59.122Z,1007.0
2023-01-07T10:56:59.131Z,1006.9
2023-01-07T10:57:59.147Z,1007.0
2023-01-07T10:58:59.148Z,1007.0
2023-01-07T10:59:59.185Z,1007.0
2023-01-07T11:00:59.566Z,1007.0
2023-01-07T11:01:59.767Z,1006.9
2023-01-07T11:02:59.346Z,1007.0
2023-01-07T11:03:59.191Z,1006.8
2023-01-07T11:04:59.209Z,1006.9
2023-01-07T11:05:59.214Z,1006.9
2023-01-07T11:06:59.237Z,1006.9
2023-01-07T11:07:59.221Z,1006.8
2023-01-07T11:08:59.235Z,1006.9
2023-01-07T11:09:59.250Z,1006.9
2023-01-07T11:10:59.268Z,1006.8
2023-01-07T11:11:59.270Z,1006.9
2023-01-07T11:12:59.268Z,1006.9
2023-01-07T11:13:59.277Z,1006.8
2023-01-07T11:14:59.291Z,1006.9
2023-01-07T11:15:59.307Z,1006.9
2023-01-07T11:16:59.330Z,1006.8
2023-01-07T11:17:59.384Z,1006.8
2023-01-07T11:18:59.340Z,1006.8
2023-01-07T11:19:59.343Z,1006.7
2023-01-07T11:20:59.371Z,1006.8
2023-01-07T11:21:59.353Z,1006.8
2023-01-07T11:22:59.359Z,1006.8
2023-01-07T11:23:59.394Z,1006.8
2023-01-07T11:24:59.431Z,1006.7
2023-01-07T11:25:59.402Z,1006.7
2023-01-07T11:26:59.396Z,1006.7
2023-01-07T11:27:59.406Z,1006.7
2023-01-07T11:28:59.434Z,1006.7
2023-01-07T11:29:59.473Z,1006.7
2023-01-07T11:30:59.483Z,1006.6
2023-01-07T11:31:59.578Z,1006.6
2023-01-07T11:32:59.469Z,1006.6
2023-01-07T11:34:04.502Z,1006.6
2023-01-07T11:34:59.472Z,1006.7
2023-01-07T11:35:59.487Z,1006.7
2023-01-07T11:36:59.488Z,1006.6
2023-01-07T11:37:59.532Z,1006.7
2023-01-07T11:38:59.507Z,1006.6
2023-01-07T11:39:59.517Z,1006.7
2023-01-07T11:41:00.999Z,1006.7
2023-01-07T11:41:59.554Z,1006.5
2023-01-07T11:42:59.565Z,1006.6
2023-01-07T11:43:59.567Z,1006.5
2023-01-07T11:44:59.565Z,1006.5
2023-01-07T11:46:18.926Z,1006.5
2023-01-07T11:46:59.691Z,1006.6
2023-01-07T11:47:59.603Z,1006.5
2023-01-07T11:48:59.609Z,1006.5
2023-01-07T11:49:59.628Z,1006.5
2023-01-07T11:50:59.640Z,1006.4
2023-01-07T11:51:59.648Z,1006.5
2023-01-07T11:52:59.655Z,1006.4
2023-01-07T11:53:59.650Z,1006.5
2023-01-07T11:54:59.666Z,1006.4
2023-01-07T11:55:59.686Z,1006.4
2023-01-07T11:56:59.676Z,1006.4
2023-01-07T11:58:29.214Z,1006.5
2023-01-07T11:58:59.702Z,1006.4
2023-01-07T11:59:59.708Z,1006.4
2023-01-07T12:00:59.837Z,1006.3
2023-01-07T12:01:59.970Z,1006.4
2023-01-07T12:02:59.733Z,1006.4
2023-01-07T12:03:59.743Z,1006.4
2023-01-07T12:04:59.767Z,1006.4
2023-01-07T12:05:59.780Z,1006.3
2023-01-07T12:06:59.806Z,1006.3
2023-01-07T12:07:59.801Z,1006.3
2023-01-07T12:08:59.790Z,1006.2
2023-01-07T12:09:59.802Z,1006.3
2023-01-07T12:10:59.816Z,1006.3
2023-01-07T12:11:59.821Z,1006.2
2023-01-07T12:12:59.839Z,1006.2
2023-01-07T12:13:59.846Z,1006.2
2023-01-07T12:14:59.871Z,1006.2
2023-01-07T12:15:59.902Z,1006.2
2023-01-07T12:16:59.862Z,1006.2
2023-01-07T12:17:59.893Z,1006.3
2023-01-07T12:18:59.868Z,1006.2
2023-01-07T12:19:59.904Z,1006.2
2023-01-07T12:20:59.910Z,1006.2
2023-01-07T12:21:59.893Z,1006.2
2023-01-07T12:22:59.926Z,1006.1
2023-01-07T12:23:59.945Z,1006.1
2023-01-07T12:24:59.923Z,1006.2
2023-01-07T12:26:00.150Z,1006.2
2023-01-07T12:26:59.943Z,1006.2
2023-01-07T12:27:59.973Z,1006.1
2023-01-07T12:28:59.971Z,1006.0
2023-01-07T12:29:59.983Z,1006.0
2023-01-07T12:31:00.139Z,1006.1
2023-01-07T12:32:00.007Z,1006.1
2023-01-07T12:33:00.014Z,1006.1
2023-01-07T12:34:00.038Z,1006.0
2023-01-07T12:35:14.172Z,1006.0
2023-01-07T12:36:00.046Z,1006.0
2023-01-07T12:37:00.060Z,1006.1
2023-01-07T12:38:00.088Z,1005.9
2023-01-07T12:39:00.101Z,1006.0
2023-01-07T12:40:00.107Z,1006.0
2023-01-07T12:41:00.088Z,1006.0
2023-01-07T12:42:00.123Z,1005.9
2023-01-07T12:43:00.129Z,1005.9
2023-01-07T12:44:00.181Z,1006.0
2023-01-07T12:45:00.158Z,1005.9
2023-01-07T12:46:00.793Z,1005.9